createdAt,value
2018-05-27T00:01:15.658Z,99980.94
2018-05-27T00:07:20.773Z,99967.47
2018-05-27T00:13:25.846Z,99956.89
2018-05-27T00:19:30.353Z,99953.36
2018-05-27T00:25:34.698Z,99949.14
2018-05-27T00:31:39.041Z,99939.84
2018-05-27T00:37:43.396Z,99947.98
2018-05-27T00:43:47.749Z,99950.02
2018-05-27T00:49:52.145Z,99954.28
2018-05-27T00:55:57.226Z,99949.91
2018-05-27T01:02:01.616Z,99950.22
2018-05-27T01:08:05.965Z,99941.77
2018-05-27T01:14:10.463Z,99933.20
2018-05-27T01:20:14.800Z,99928.52
2018-05-27T01:26:19.180Z,99927.13
2018-05-27T01:32:24.279Z,99917.28
2018-05-27T01:38:28.595Z,99914.61
2018-05-27T01:44:33.763Z,99902.86
2018-05-27T01:50:38.182Z,99905.34
2018-05-27T01:56:42.520Z,99911.76
2018-05-27T02:02:46.860Z,99903.60
2018-05-27T02:08:51.320Z,99882.25
2018-05-27T02:14:55.721Z,99873.11
2018-05-27T02:21:00.136Z,99869.72
2018-05-27T02:27:04.509Z,99872.20
2018-05-27T02:33:08.859Z,99875.45
2018-05-27T02:39:13.204Z,99872.13
2018-05-27T02:45:18.547Z,99871.53
2018-05-27T02:51:23.531Z,99871.02
2018-05-27T02:57:27.868Z,99873.93
2018-05-27T03:03:32.954Z,99879.47
2018-05-27T03:09:37.474Z,99881.43
2018-05-27T03:15:41.804Z,99883.38
2018-05-27T03:21:47.085Z,99892.45
2018-05-27T03:27:52.308Z,99892.05
2018-05-27T03:33:56.696Z,99885.26
2018-05-27T03:40:01.049Z,99881.73
2018-05-27T03:46:06.151Z,99890.77
2018-05-27T03:52:11.256Z,99894.33
2018-05-27T03:58:15.596Z,99901.79
2018-05-27T04:04:37.541Z,99897.44
2018-05-27T04:10:41.977Z,99897.09
2018-05-27T04:16:47.104Z,99890.28
2018-05-27T04:22:51.489Z,99887.27
2018-05-27T04:28:56.735Z,99889.92
2018-05-27T04:35:01.853Z,99884.59
2018-05-27T04:41:06.194Z,99875.42
2018-05-27T04:47:10.543Z,99866.94
2018-05-27T04:53:14.881Z,99861.19
2018-05-27T04:59:19.830Z,99868.83
2018-05-27T05:05:24.513Z,99881.91
2018-05-27T05:11:29.637Z,99889.89
2018-05-27T05:17:34.044Z,99890.98
2018-05-27T05:23:38.364Z,99880.91
2018-05-27T05:29:42.757Z,99878.77
2018-05-27T05:35:47.099Z,99875.94
2018-05-27T05:41:51.625Z,99877.63
2018-05-27T05:47:56.109Z,99876.28
2018-05-27T05:54:00.451Z,99881.95
2018-05-27T06:00:04.861Z,99892.81
2018-05-27T06:06:09.217Z,99890.26
2018-05-27T06:12:13.565Z,99901.62
2018-05-27T06:18:18.669Z,99905.10
2018-05-27T06:24:23.013Z,99921.98
2018-05-27T06:30:27.372Z,99926.83
2018-05-27T06:36:31.731Z,99931.42
2018-05-27T06:42:36.073Z,99924.61
2018-05-27T06:48:40.453Z,99927.01
2018-05-27T06:54:44.824Z,99932.08
2018-05-27T07:00:49.891Z,99927.63
2018-05-27T07:06:54.373Z,99926.47
2018-05-27T07:12:58.729Z,99916.36
2018-05-27T07:19:03.116Z,99910.54
2018-05-27T07:25:07.455Z,99911.44
2018-05-27T07:31:11.812Z,99914.20
2018-05-27T07:37:16.174Z,99913.18
2018-05-27T07:43:20.667Z,99911.38
2018-05-27T07:49:25.084Z,99909.69
2018-05-27T07:55:29.432Z,99896.89
2018-05-27T08:01:33.784Z,99898.88
2018-05-27T08:07:38.143Z,99898.70
2018-05-27T08:13:42.528Z,99894.23
2018-05-27T08:19:46.958Z,99898.14
2018-05-27T08:25:51.764Z,99896.63
2018-05-27T08:31:56.995Z,99885.55
2018-05-27T08:38:01.339Z,99884.09
2018-05-27T08:44:05.653Z,99884.17
2018-05-27T08:50:10.038Z,99887.56
2018-05-27T08:56:14.388Z,99882.58
2018-05-27T09:02:19.812Z,99881.66
2018-05-27T09:08:25.067Z,99877.76
2018-05-27T09:14:29.422Z,99872.91
2018-05-27T09:20:34.616Z,99872.19
2018-05-27T09:26:39.797Z,99865.60
2018-05-27T09:32:45.003Z,99854.26
2018-05-27T09:38:50.294Z,99857.30
2018-05-27T09:44:54.792Z,99855.42
2018-05-27T09:50:59.226Z,99846.91
2018-05-27T09:57:03.646Z,99848.17
2018-05-27T10:03:08.758Z,99836.11
2018-05-27T10:09:13.120Z,99830.59
2018-05-27T10:15:17.468Z,99835.11
2018-05-27T10:21:23.441Z,99819.51
2018-05-27T10:27:27.791Z,99821.07
2018-05-27T10:33:32.174Z,99819.22
2018-05-27T10:39:36.513Z,99813.62
2018-05-27T10:45:41.624Z,99810.77
2018-05-27T10:51:45.932Z,99807.95
2018-05-27T10:57:51.095Z,99805.20
2018-05-27T11:03:55.445Z,99800.85
2018-05-27T11:10:00.878Z,99795.81
2018-05-27T11:16:05.184Z,99787.60
2018-05-27T11:22:10.330Z,99780.23
2018-05-27T11:28:14.713Z,99771.62
2018-05-27T11:34:19.100Z,99763.34
2018-05-27T11:40:23.844Z,99756.45
2018-05-27T11:46:28.235Z,99744.77
2018-05-27T11:52:32.601Z,99736.91
2018-05-27T11:58:36.907Z,99729.88
2018-05-27T12:04:41.286Z,99729.11
2018-05-27T12:10:45.737Z,99707.39
2018-05-27T12:16:50.383Z,99694.08
2018-05-27T12:22:54.916Z,99699.30
2018-05-27T12:28:59.281Z,99691.56
2018-05-27T12:35:03.648Z,99689.16
2018-05-27T12:41:07.992Z,99680.36
2018-05-27T12:47:13.102Z,99676.56
2018-05-27T12:53:17.439Z,99666.99
2018-05-27T12:59:21.870Z,99663.39
2018-05-27T13:05:26.362Z,99667.66
2018-05-27T13:11:30.738Z,99656.23
2018-05-27T13:17:35.088Z,99654.73
2018-05-27T13:23:39.429Z,99651.17
2018-05-27T13:29:44.540Z,99648.52
2018-05-27T13:35:50.277Z,99646.62
2018-05-27T13:41:54.845Z,99639.18
2018-05-27T13:47:59.221Z,99638.73
2018-05-27T13:54:03.553Z,99626.97
2018-05-27T14:00:07.902Z,99632.70
2018-05-27T14:06:12.262Z,99620.33
2018-05-27T14:12:16.605Z,99616.29
2018-05-27T14:18:21.133Z,99613.75
2018-05-27T14:24:25.669Z,99607.97
2018-05-27T14:30:30.020Z,99618.19
2018-05-27T14:36:34.384Z,99617.87
2018-05-27T14:42:38.726Z,99612.77
2018-05-27T14:48:43.065Z,99620.50
2018-05-27T14:54:47.452Z,99613.13
2018-05-27T15:00:52.584Z,99609.42
2018-05-27T15:06:56.928Z,99593.77
2018-05-27T15:13:01.239Z,99606.98
2018-05-27T15:19:05.660Z,99616.47
2018-05-27T15:25:10.008Z,99595.82
2018-05-27T15:31:14.367Z,99609.91
2018-05-27T15:37:19.499Z,99616.74
2018-05-27T15:43:23.992Z,99622.95
2018-05-27T15:49:28.397Z,99637.05
2018-05-27T15:55:32.748Z,99644.51
2018-05-27T16:01:37.060Z,99655.08
2018-05-27T16:07:41.452Z,99658.52
2018-05-27T16:13:46.525Z,99664.25
2018-05-27T16:19:51.520Z,99667.70
2018-05-27T16:25:56.677Z,99661.00
2018-05-27T16:32:01.075Z,99645.36
2018-05-27T16:38:05.425Z,99638.93
2018-05-27T16:44:09.786Z,99653.55
2018-05-27T16:50:14.148Z,99679.90
2018-05-27T16:56:18.535Z,99701.32
2018-05-27T17:02:23.948Z,99725.26
2018-05-27T17:08:28.317Z,99750.89
2018-05-27T17:14:32.819Z,99757.00
2018-05-27T17:20:37.188Z,99766.66
2018-05-27T17:26:41.879Z,99766.15
2018-05-27T17:32:46.236Z,99767.40
2018-05-27T17:38:50.865Z,99772.48
2018-05-27T17:44:56.024Z,99761.72
2018-05-27T17:51:00.369Z,99746.78
2018-05-27T17:57:04.828Z,99722.55
2018-05-27T18:03:09.178Z,99699.73
2018-05-27T18:09:14.281Z,99666.72
2018-05-27T18:15:18.636Z,99655.46
2018-05-27T18:21:24.449Z,99650.72
2018-05-27T18:27:28.800Z,99654.29
2018-05-27T18:33:33.208Z,99660.72
2018-05-27T18:39:38.331Z,99660.53
2018-05-27T18:45:42.685Z,99643.11
2018-05-27T18:51:47.036Z,99644.69
2018-05-27T18:57:52.995Z,99641.55
2018-05-27T19:03:57.487Z,99649.77
2018-05-27T19:10:01.842Z,99650.05
2018-05-27T19:16:06.199Z,99665.41
2018-05-27T19:22:10.561Z,99673.38
2018-05-27T19:28:15.718Z,99682.72
2018-05-27T19:34:20.262Z,99697.20
2018-05-27T19:40:25.941Z,99687.87
2018-05-27T19:46:31.061Z,99681.77
2018-05-27T19:52:35.472Z,99689.77
2018-05-27T19:58:39.798Z,99689.63
2018-05-27T20:04:44.188Z,99683.02
2018-05-27T20:10:48.556Z,99690.78
2018-05-27T20:16:53.293Z,99686.36
2018-05-27T20:22:57.861Z,99685.95
2018-05-27T20:29:02.252Z,99686.14
2018-05-27T20:35:07.370Z,99680.65
2018-05-27T20:41:11.750Z,99684.00
2018-05-27T20:47:16.097Z,99697.89
2018-05-27T20:53:21.987Z,99705.28
2018-05-27T20:59:26.332Z,99721.89
2018-05-27T21:05:31.079Z,99723.77
2018-05-27T21:11:36.196Z,99734.03
2018-05-27T21:17:40.591Z,99743.61
2018-05-27T21:23:44.937Z,99755.17
2018-05-27T21:29:50.765Z,99739.77
2018-05-27T21:35:55.576Z,99727.39
2018-05-27T21:41:59.973Z,99733.27
2018-05-27T21:48:04.386Z,99741.91
2018-05-27T21:54:08.767Z,99741.33
2018-05-27T22:00:13.118Z,99750.17
2018-05-27T22:06:18.239Z,99751.13
2018-05-27T22:12:22.773Z,99747.75
2018-05-27T22:18:27.118Z,99746.20
2018-05-27T22:24:31.528Z,99745.62
2018-05-27T22:30:36.641Z,99735.74
2018-05-27T22:36:41.004Z,99723.70
2018-05-27T22:42:45.407Z,99719.75
2018-05-27T22:48:50.143Z,99727.30
2018-05-27T22:54:54.984Z,99720.63
2018-05-27T23:00:59.429Z,99714.44
2018-05-27T23:07:03.809Z,99725.99
2018-05-27T23:13:08.176Z,99722.19
2018-05-27T23:19:13.289Z,99709.80
2018-05-27T23:25:17.643Z,99706.16
2018-05-27T23:31:22.286Z,99693.72
2018-05-27T23:37:26.732Z,99702.85
2018-05-27T23:43:31.114Z,99698.50
2018-05-27T23:49:35.457Z,99699.03
2018-05-27T23:55:39.820Z,99706.05
